Peru, ME (04290)

9:50 PM EDT on October 21, 2014 (GMT -0400)
Church St., Hartford | Change Station
CLOSE
Current Station
Personal Weather Station
Location: Canton, ME
Elevation: 705 ft
Nearby Weather Stations
Active Advisory: Areal Flood Watch

Elev 705 ft 44.37 °N, 70.32 °W | Updated 11 minutes ago

Rain
Rain
41.4 °F
Feels Like 41 °F
N
2.0
Wind Variable Wind from NE
Gusts 11.0 mph

Today
High -- | Low -- °F
--% Chance of Precip.
Yesterday
High -- | Low -- °F
Precip. -- in
7:04 AM 5:47 PM
Waning Crescent, 3% visible
Pressure 30.07 in
Visibility 10.0 miles
Clouds Overcast 600 ft
Windchill 41 °F
Dew Point 41 °F
Humidity 97%
Rainfall 0.29 in
Snow Depth Not available.
UV 0 out of 12
Pollen .10 out of 12
Air Quality Not available.
Flu Activity Sporadic
METAR KLEW 220135Z AUTO 02012KT 10SM OVC006 07/06 A3007 RMK AO1

More Conditions Fewer Conditions

Pressure 30.07 in
Visibility 10.0 miles
Clouds Overcast 600 ft
Windchill 41 °F
Dew Point 41 °F
Humidity 97%
Rainfall 0.29 in
Snow Depth Not available.
UV 0 out of 12
Pollen .10 out of 12
Air Quality Not available.
Flu Activity Sporadic
METAR KLEW 220135Z AUTO 02012KT 10SM OVC006 07/06 A3007 RMK AO1

More Conditions Fewer Conditions

10-Day Weather Forecast

Almanac

Astronomy

Oct. 21, 2014 Rise Set
Actual Time 7:04 AM EDT 5:47 PM EDT
Civil Twilight 6:34 AM EDT 6:17 PM EDT
Nautical Twilight 6:01 AM EDT 6:50 PM EDT
Astronomical Twilight 5:27 AM EDT 7:24 PM EDT
Moon 4:40 AM EDT (10/21) 4:44 PM EDT (10/21)
Length of Visible Light 11h 42m
Length of Day
10h 42m
Tomorrow will be 2m 54s shorter.
Waning Crescent, 3% of the Moon is Illuminated
Today
Waning Crescent
Oct 23
New
Oct 30
First Quarter
Nov 6
Full
Nov 14
Last Quarter

Today's Extremes

State Highs State Lows

Community

WunderPhotos

Upload Photos

1,763,843 photos uploaded!

Nearby

Air Quality

  Air Quality AQ Index Pollutant
Tuesday Good
OZONE
Tuesday Good
PM2.5
Wednesday Good
OZONE
Wednesday Good
PM2.5
Thursday Good
OZONE
Thursday Good
PM2.5
Friday Good
OZONE
Friday Good
PM2.5
Saturday Good
OZONE
Saturday Good
PM2.5

Snow Depth

Station Depth Elevation
No new snow has been reported.

Earthquake Activity

City Distance Mag. Time & Date
No recent earthquake activity has been reported nearby.
Minimum magnitude displayed is 2.5.

Coastal Water Temperatures

Place Temperature
No Stations Reporting

Nearby Weather Stations